createdAt,value
2022-12-22T00:02:35.170Z,-10855.66
2022-12-22T00:05:59.176Z,-10859.56
2022-12-22T00:09:24.127Z,-10846.44
2022-12-22T00:12:48.271Z,-10850.47
2022-12-22T00:16:11.939Z,-10854.69
2022-12-22T00:19:35.654Z,-10841.38
2022-12-22T00:22:59.735Z,-10842.94
2022-12-22T00:26:24.309Z,-10842.50
2022-12-22T00:29:54.591Z,-10837.19
2022-12-22T00:33:18.781Z,-10836.91
2022-12-22T00:36:43.216Z,-10851.19
2022-12-22T00:40:07.899Z,-10842.78
2022-12-22T00:43:33.365Z,-10851.31
2022-12-22T00:46:59.347Z,-10852.31
2022-12-22T00:50:24.220Z,-10857.75
2022-12-22T00:53:48.539Z,-10857.34
2022-12-22T00:57:12.082Z,-10844.75
2022-12-22T01:00:37.977Z,-10844.19
2022-12-22T01:04:01.902Z,-10829.38
2022-12-22T01:07:25.953Z,-10836.34
2022-12-22T01:10:50.391Z,-10844.19
2022-12-22T01:14:13.844Z,-10841.09
2022-12-22T01:17:38.769Z,-10838.31
2022-12-22T01:21:02.426Z,-10840.41
2022-12-22T01:24:30.931Z,-10847.97
2022-12-22T01:27:54.820Z,-10844.75
2022-12-22T01:31:35.408Z,-10854.81
2022-12-22T01:35:00.684Z,-10858.44
2022-12-22T01:38:24.516Z,-10850.91
2022-12-22T01:41:48.646Z,-10846.28
2022-12-22T01:45:12.554Z,-10839.56
2022-12-22T01:48:37.666Z,-10830.91
2022-12-22T01:52:02.471Z,-10827.00
2022-12-22T01:55:31.035Z,-10846.00
2022-12-22T01:59:00.281Z,-10853.69
2022-12-22T02:02:25.743Z,-10855.66
2022-12-22T02:05:53.018Z,-10848.53
2022-12-22T02:09:33.490Z,-10835.94
2022-12-22T02:13:04.234Z,-10829.50
2022-12-22T02:16:33.588Z,-10828.25
2022-12-22T02:20:21.528Z,-10840.28
2022-12-22T02:24:06.094Z,-10837.19
2022-12-22T02:27:31.435Z,-10831.75
2022-12-22T02:30:55.349Z,-10822.66
2022-12-22T02:34:19.273Z,-10826.00
2022-12-22T02:37:49.212Z,-10819.16
2022-12-22T02:41:25.699Z,-10831.03
2022-12-22T02:45:04.977Z,-10833.56
2022-12-22T02:48:34.794Z,-10840.00
2022-12-22T02:52:09.935Z,-10842.78
2022-12-22T02:55:35.311Z,-10838.47
2022-12-22T02:58:59.220Z,-10840.56
2022-12-22T03:02:24.072Z,-10839.16
2022-12-22T03:05:47.682Z,-10827.41
2022-12-22T03:09:11.606Z,-10826.84
2022-12-22T03:12:35.332Z,-10832.16
2022-12-22T03:15:59.503Z,-10830.22
2022-12-22T03:19:24.467Z,-10822.25
2022-12-22T03:22:48.321Z,-10820.97
2022-12-22T03:25:55.230Z,-10822.94
2022-12-22T03:29:01.347Z,-10832.59
2022-12-22T03:32:07.598Z,-10832.72
2022-12-22T03:35:15.275Z,-10832.44
2022-12-22T03:38:21.694Z,-10827.69
2022-12-22T03:41:45.515Z,-10819.31
2022-12-22T03:45:08.839Z,-10828.38
2022-12-22T03:48:15.171Z,-10839.16
2022-12-22T03:51:22.579Z,-10836.63
2022-12-22T03:54:29.027Z,-10830.91
2022-12-22T03:57:35.222Z,-10837.63
2022-12-22T04:00:41.467Z,-10847.25
2022-12-22T04:03:47.496Z,-10836.34
2022-12-22T04:06:55.526Z,-10833.28
2022-12-22T04:10:19.454Z,-10832.03
2022-12-22T04:13:25.207Z,-10831.31
2022-12-22T04:16:31.508Z,-10820.69
2022-12-22T04:19:37.629Z,-10816.22
2022-12-22T04:22:46.584Z,-10813.44
2022-12-22T04:25:52.801Z,-10827.13
2022-12-22T04:28:58.830Z,-10825.59
2022-12-22T04:32:05.355Z,-10833.56
2022-12-22T04:35:12.353Z,-10821.69
2022-12-22T04:38:20.174Z,-10823.22
2022-12-22T04:41:26.571Z,-10822.94
2022-12-22T04:44:32.929Z,-10805.31
2022-12-22T04:47:39.110Z,-10826.72
2022-12-22T04:50:45.543Z,-10818.03
2022-12-22T04:53:53.009Z,-10822.94
2022-12-22T04:56:59.512Z,-10828.94
2022-12-22T05:00:06.480Z,-10810.50
2022-12-22T05:03:12.978Z,-10805.88
2022-12-22T05:06:19.116Z,-10824.75
2022-12-22T05:09:26.745Z,-10827.13
2022-12-22T05:12:50.283Z,-10817.34
2022-12-22T05:15:56.324Z,-10811.34
2022-12-22T05:19:02.318Z,-10812.03
2022-12-22T05:22:08.626Z,-10815.38
2022-12-22T05:25:17.736Z,-10816.50
2022-12-22T05:28:24.025Z,-10824.88
2022-12-22T05:31:30.269Z,-10820.97
2022-12-22T05:34:36.375Z,-10817.91
2022-12-22T05:37:42.696Z,-10833.56
2022-12-22T05:40:50.691Z,-10829.66
2022-12-22T05:43:56.872Z,-10815.94
2022-12-22T05:47:03.293Z,-10825.88
2022-12-22T05:50:11.558Z,-10825.16
2022-12-22T05:53:17.759Z,-10834.13
2022-12-22T05:56:25.356Z,-10824.88
2022-12-22T05:59:31.665Z,-10832.31
2022-12-22T06:02:37.980Z,-10833.84
2022-12-22T06:05:44.364Z,-10826.72
2022-12-22T06:08:50.725Z,-10817.91
2022-12-22T06:11:58.281Z,-10805.31
2022-12-22T06:15:05.511Z,-10816.50
2022-12-22T06:18:11.937Z,-10804.50
2022-12-22T06:21:17.903Z,-10799.47
2022-12-22T06:24:23.949Z,-10804.06
2022-12-22T06:27:31.096Z,-10817.06
2022-12-22T06:30:37.308Z,-10814.81
2022-12-22T06:33:43.407Z,-10814.81
2022-12-22T06:36:50.391Z,-10832.44
2022-12-22T06:39:56.657Z,-10840.28
2022-12-22T06:43:10.790Z,-10837.34
2022-12-22T06:46:17.429Z,-10847.13
2022-12-22T06:49:23.725Z,-10850.91
2022-12-22T06:52:30.120Z,-10840.00
2022-12-22T06:55:36.425Z,-10850.91
2022-12-22T06:58:44.186Z,-10870.75
2022-12-22T07:01:50.574Z,-10874.41
2022-12-22T07:04:56.735Z,-10880.97
2022-12-22T07:08:08.513Z,-10888.13
2022-12-22T07:11:16.491Z,-10892.47
2022-12-22T07:14:24.223Z,-10882.53
2022-12-22T07:17:30.348Z,-10887.00
2022-12-22T07:20:36.410Z,-10895.13
2022-12-22T07:23:42.767Z,-10908.41
2022-12-22T07:26:48.764Z,-10911.06
2022-12-22T07:29:56.430Z,-10911.78
2022-12-22T07:33:02.623Z,-10913.59
2022-12-22T07:36:12.396Z,-10920.31
2022-12-22T07:39:18.841Z,-10926.19
2022-12-22T07:42:42.844Z,-10928.03
2022-12-22T07:45:50.615Z,-10936.97
2022-12-22T07:49:14.299Z,-10939.09
2022-12-22T07:52:20.532Z,-10938.38
2022-12-22T07:55:29.143Z,-10943.00
2022-12-22T07:58:35.698Z,-10943.56
2022-12-22T08:01:44.020Z,-10949.31
2022-12-22T08:04:50.296Z,-10956.44
2022-12-22T08:07:56.409Z,-10957.00
2022-12-22T08:11:03.614Z,-10954.91
2022-12-22T08:14:10.492Z,-10957.84
2022-12-22T08:17:18.922Z,-10962.34
2022-12-22T08:20:26.090Z,-10964.44
2022-12-22T08:23:32.727Z,-10970.88
2022-12-22T08:26:44.072Z,-10974.25
2022-12-22T08:29:56.916Z,-10984.91
2022-12-22T08:33:04.951Z,-10984.47
2022-12-22T08:36:12.445Z,-10988.69
2022-12-22T08:39:21.932Z,-10993.88
2022-12-22T08:42:28.484Z,-10997.53
2022-12-22T08:45:34.681Z,-11002.72
2022-12-22T08:48:42.279Z,-10994.56
2022-12-22T08:51:49.160Z,-11006.34
2022-12-22T08:54:55.274Z,-11009.28
2022-12-22T08:58:01.641Z,-11013.38
2022-12-22T09:01:07.530Z,-11015.47
2022-12-22T09:04:15.910Z,-11013.50
2022-12-22T09:07:22.060Z,-11024.03
2022-12-22T09:10:28.213Z,-11024.59
2022-12-22T09:13:34.565Z,-11024.72
2022-12-22T09:16:41.767Z,-11027.66
2022-12-22T09:19:49.641Z,-11028.66
2022-12-22T09:22:56.085Z,-11042.81
2022-12-22T09:26:07.587Z,-11051.38
2022-12-22T09:29:15.746Z,-11056.44
2022-12-22T09:32:22.361Z,-11060.22
2022-12-22T09:35:29.843Z,-11063.03
2022-12-22T09:38:37.250Z,-11067.22
2022-12-22T09:41:46.691Z,-11057.13
2022-12-22T09:44:53.165Z,-11071.16
2022-12-22T09:47:59.432Z,-11076.78
2022-12-22T09:51:12.911Z,-11080.44
2022-12-22T09:54:19.730Z,-11069.75
2022-12-22T09:57:31.472Z,-11077.34
2022-12-22T10:00:38.457Z,-11082.69
2022-12-22T10:03:52.736Z,-11081.84
2022-12-22T10:07:13.946Z,-11080.44
2022-12-22T10:10:25.502Z,-11092.94
2022-12-22T10:13:32.154Z,-11098.13
2022-12-22T10:16:38.655Z,-11106.13
2022-12-22T10:19:45.298Z,-11106.84
2022-12-22T10:22:55.671Z,-11107.13
2022-12-22T10:29:34.774Z,-11114.97
2022-12-22T10:32:41.271Z,-11121.44
2022-12-22T10:35:53.566Z,-11115.81
2022-12-22T10:39:04.146Z,-11122.00
2022-12-22T10:42:13.891Z,-11128.19
2022-12-22T10:45:22.739Z,-11127.34
2022-12-22T10:48:34.791Z,-11133.22
2022-12-22T10:51:42.353Z,-11137.31
2022-12-22T10:54:50.458Z,-11142.09
2022-12-22T10:58:15.822Z,-11148.13
2022-12-22T11:01:28.808Z,-11147.41
2022-12-22T11:04:35.291Z,-11143.62
2022-12-22T11:07:43.419Z,-11159.38
2022-12-22T11:10:56.623Z,-11159.94
2022-12-22T11:14:15.865Z,-11160.91
2022-12-22T11:17:31.724Z,-11159.66
2022-12-22T11:20:52.973Z,-11166.69
2022-12-22T11:24:06.653Z,-11166.13
2022-12-22T11:27:29.011Z,-11177.63
2022-12-22T11:30:40.931Z,-11170.91
2022-12-22T11:34:00.182Z,-11177.22
2022-12-22T11:37:22.903Z,-11174.69
2022-12-22T11:40:34.254Z,-11178.75
2022-12-22T11:43:58.803Z,-11173.97
2022-12-22T11:47:13.332Z,-11179.03
2022-12-22T11:51:01.236Z,-11185.38
2022-12-22T11:54:44.155Z,-11187.34
2022-12-22T11:58:11.880Z,-11189.59
2022-12-22T12:01:41.583Z,-11191.41
2022-12-22T12:05:27.531Z,-11196.75
2022-12-22T12:08:43.690Z,-11196.34
2022-12-22T12:11:59.497Z,-11209.69
2022-12-22T12:15:20.680Z,-11204.63
2022-12-22T12:18:57.957Z,-11220.25
2022-12-22T12:22:07.258Z,-11223.19
2022-12-22T12:25:26.565Z,-11212.38
2022-12-22T12:28:39.901Z,-11219.69
2022-12-22T12:31:52.456Z,-11205.75
2022-12-22T12:35:06.805Z,-11205.75
2022-12-22T12:38:47.917Z,-11214.47
2022-12-22T12:41:57.678Z,-11218.69
2022-12-22T12:45:05.307Z,-11230.38
2022-12-22T12:48:42.582Z,-11231.06
2022-12-22T12:51:51.079Z,-11250.06
2022-12-22T12:55:31.406Z,-11241.47
2022-12-22T12:58:53.927Z,-11240.78
2022-12-22T13:02:01.645Z,-11244.31
2022-12-22T13:05:28.870Z,-11244.31
2022-12-22T13:12:52.333Z,-11251.75
2022-12-22T13:16:33.818Z,-11240.91
2022-12-22T13:19:40.307Z,-11247.81
2022-12-22T13:22:47.599Z,-11248.25
2022-12-22T13:25:59.333Z,-11242.31
2022-12-22T13:29:11.144Z,-11262.88
2022-12-22T13:32:26.618Z,-11254.44
2022-12-22T13:35:44.801Z,-11219.53
2022-12-22T13:39:01.898Z,-11208.28
2022-12-22T13:42:13.888Z,-11193.09
2022-12-22T13:45:30.747Z,-11166.53
2022-12-22T13:48:44.620Z,-11152.06
2022-12-22T13:51:53.235Z,-11142.22
2022-12-22T13:54:59.784Z,-11127.63
2022-12-22T13:58:16.776Z,-11125.50
2022-12-22T14:01:23.097Z,-11103.19
2022-12-22T14:04:29.843Z,-11086.88
2022-12-22T14:07:36.148Z,-11092.94
2022-12-22T14:10:45.675Z,-11106.56
2022-12-22T14:13:53.213Z,-11100.09
2022-12-22T14:17:01.013Z,-11089.84
2022-12-22T14:20:18.880Z,-11085.06
2022-12-22T14:23:30.702Z,-11072.44
2022-12-22T14:26:37.832Z,-11063.03
2022-12-22T14:29:46.398Z,-11059.66
2022-12-22T14:32:55.973Z,-11050.97
2022-12-22T14:36:07.681Z,-11052.63
2022-12-22T14:39:24.052Z,-11050.13
2022-12-22T14:42:31.995Z,-11045.34
2022-12-22T14:45:39.963Z,-11042.13
2022-12-22T14:48:48.511Z,-11041.00
2022-12-22T14:52:01.110Z,-11036.09
2022-12-22T14:55:23.995Z,-11027.66
2022-12-22T14:58:34.314Z,-11050.41
2022-12-22T15:01:42.191Z,-11059.94
2022-12-22T15:04:48.477Z,-11040.72
2022-12-22T15:08:06.604Z,-11022.06
2022-12-22T15:11:16.691Z,-11013.66
2022-12-22T15:14:24.904Z,-11013.94
2022-12-22T15:17:32.636Z,-11002.84
2022-12-22T15:20:40.896Z,-11015.19
2022-12-22T15:23:47.833Z,-11000.19
2022-12-22T15:26:54.207Z,-11002.44
2022-12-22T15:30:00.486Z,-11003.25
2022-12-22T15:33:14.380Z,-10992.63
2022-12-22T15:36:20.641Z,-10990.94
2022-12-22T15:39:27.245Z,-11002.16
2022-12-22T15:42:33.848Z,-10998.91
2022-12-22T15:45:41.106Z,-10982.78
2022-12-22T15:48:49.431Z,-10985.59
2022-12-22T15:51:58.626Z,-10988.25
2022-12-22T15:55:05.467Z,-10985.31
2022-12-22T15:58:14.257Z,-10975.50
2022-12-22T16:01:20.581Z,-10975.78
2022-12-22T16:04:28.629Z,-10977.47
2022-12-22T16:07:35.318Z,-10972.44
2022-12-22T16:10:42.246Z,-10969.63
2022-12-22T16:13:50.593Z,-10958.13
2022-12-22T16:16:56.779Z,-10966.13
2022-12-22T16:20:05.309Z,-10954.06
2022-12-22T16:23:17.003Z,-10954.34
2022-12-22T16:26:23.929Z,-10952.66
2022-12-22T16:29:30.206Z,-10957.56
2022-12-22T16:32:36.389Z,-10962.06
2022-12-22T16:35:44.274Z,-10960.66
2022-12-22T16:38:50.756Z,-10960.66
2022-12-22T16:42:00.006Z,-10957.84
2022-12-22T16:45:15.598Z,-10961.50
2022-12-22T16:48:30.665Z,-10962.06
2022-12-22T16:51:45.494Z,-10953.78
2022-12-22T16:54:52.921Z,-10954.22
2022-12-22T16:57:59.691Z,-10951.69
2022-12-22T17:01:06.802Z,-10946.66
2022-12-22T17:04:17.100Z,-10942.44
2022-12-22T17:07:24.896Z,-10949.03
2022-12-22T17:10:31.359Z,-10952.53
2022-12-22T17:13:38.589Z,-10950.28
2022-12-22T17:16:44.611Z,-10948.06
2022-12-22T17:19:51.792Z,-10947.06
2022-12-22T17:23:01.853Z,-10948.06
2022-12-22T17:26:10.473Z,-10948.06
2022-12-22T17:29:18.781Z,-10948.59
2022-12-22T17:32:25.370Z,-10945.53
2022-12-22T17:35:33.441Z,-10946.78
2022-12-22T17:38:41.348Z,-10945.94
2022-12-22T17:41:55.915Z,-10945.66
2022-12-22T17:45:03.567Z,-10941.88
2022-12-22T17:48:10.174Z,-10940.75
2022-12-22T17:51:18.586Z,-10940.75
2022-12-22T17:54:27.848Z,-10936.56
2022-12-22T17:57:36.781Z,-10923.41
2022-12-22T18:00:43.330Z,-10918.50
2022-12-22T18:03:49.580Z,-10916.41
2022-12-22T18:06:56.055Z,-10910.22
2022-12-22T18:10:03.601Z,-10916.53
2022-12-22T18:13:16.773Z,-10917.38
2022-12-22T18:16:23.361Z,-10921.84
2022-12-22T18:19:29.629Z,-10919.47
2022-12-22T18:22:36.020Z,-10926.19
2022-12-22T18:25:43.821Z,-10927.47
2022-12-22T18:28:50.648Z,-10927.88
2022-12-22T18:31:56.667Z,-10928.44
2022-12-22T18:35:03.203Z,-10929.97
2022-12-22T18:38:23.358Z,-10924.66
2022-12-22T18:41:34.829Z,-10924.78
2022-12-22T18:44:40.944Z,-10916.53
2022-12-22T18:47:47.499Z,-10917.09
2022-12-22T18:50:53.937Z,-10923.25
2022-12-22T18:54:00.106Z,-10923.53
2022-12-22T18:57:14.357Z,-10911.78
2022-12-22T19:00:22.375Z,-10913.59
2022-12-22T19:03:30.782Z,-10910.78
2022-12-22T19:06:38.083Z,-10907.16
2022-12-22T19:09:44.346Z,-10904.78
2022-12-22T19:12:53.898Z,-10898.75
2022-12-22T19:16:00.778Z,-10900.44
2022-12-22T19:19:06.967Z,-10910.38
2022-12-22T19:22:14.525Z,-10908.84
2022-12-22T19:25:23.316Z,-10912.19
2022-12-22T19:28:34.418Z,-10908.56
2022-12-22T19:31:40.952Z,-10899.31
2022-12-22T19:34:47.339Z,-10897.78
2022-12-22T19:37:54.651Z,-10903.50
2022-12-22T19:41:03.156Z,-10908.28
2022-12-22T19:44:19.037Z,-10912.06
2022-12-22T19:47:28.485Z,-10908.13
2022-12-22T19:50:34.362Z,-10908.41
2022-12-22T19:53:40.469Z,-10907.72
2022-12-22T19:56:49.877Z,-10910.09
2022-12-22T19:59:57.100Z,-10905.47
2022-12-22T20:03:03.504Z,-10884.47
2022-12-22T20:06:10.069Z,-10884.47
2022-12-22T20:09:16.188Z,-10888.41
2022-12-22T20:12:27.665Z,-10877.63
2022-12-22T20:15:38.135Z,-10877.47
2022-12-22T20:18:46.703Z,-10883.09
2022-12-22T20:21:53.847Z,-10899.03
2022-12-22T20:25:00.807Z,-10888.69
2022-12-22T20:28:17.166Z,-10894.28
2022-12-22T20:31:25.773Z,-10894.00
2022-12-22T20:34:31.991Z,-10893.72
2022-12-22T20:37:38.099Z,-10887.84
2022-12-22T20:40:44.728Z,-10886.44
2022-12-22T20:43:51.198Z,-10896.78
2022-12-22T20:46:59.721Z,-10893.72
2022-12-22T20:50:20.139Z,-10897.78
2022-12-22T20:53:26.481Z,-10896.38
2022-12-22T20:56:34.926Z,-10899.88
2022-12-22T20:59:41.215Z,-10902.81
2022-12-22T21:02:48.868Z,-10900.16
2022-12-22T21:05:55.594Z,-10890.91
2022-12-22T21:09:03.621Z,-10889.22
2022-12-22T21:12:09.825Z,-10888.25
2022-12-22T21:15:21.329Z,-10896.50
2022-12-22T21:18:28.761Z,-10896.22
2022-12-22T21:21:34.943Z,-10893.28
2022-12-22T21:24:41.925Z,-10893.44
2022-12-22T21:27:50.428Z,-10893.84
2022-12-22T21:30:56.807Z,-10880.00
2022-12-22T21:34:04.476Z,-10871.31
2022-12-22T21:37:17.596Z,-10861.53
2022-12-22T21:40:25.677Z,-10857.63
2022-12-22T21:43:31.689Z,-10860.97
2022-12-22T21:46:38.005Z,-10865.16
2022-12-22T21:49:45.572Z,-10873.84
2022-12-22T21:52:51.483Z,-10882.53
2022-12-22T21:55:57.604Z,-10881.13
2022-12-22T21:59:04.328Z,-10883.09
2022-12-22T22:02:17.548Z,-10884.75
2022-12-22T22:05:27.842Z,-10879.31
2022-12-22T22:08:34.090Z,-10873.28
2022-12-22T22:12:00.192Z,-10876.78
2022-12-22T22:15:08.007Z,-10887.84
2022-12-22T22:18:17.698Z,-10886.31
2022-12-22T22:21:25.518Z,-10883.22
2022-12-22T22:24:32.201Z,-10881.81
2022-12-22T22:27:42.913Z,-10879.44
2022-12-22T22:30:52.642Z,-10868.53
2022-12-22T22:33:59.070Z,-10861.25
2022-12-22T22:37:07.195Z,-10867.13
2022-12-22T22:40:15.990Z,-10871.31
2022-12-22T22:43:22.226Z,-10864.59
2022-12-22T22:46:28.459Z,-10862.22
2022-12-22T22:49:34.831Z,-10870.50
2022-12-22T22:52:42.656Z,-10876.22
2022-12-22T22:55:49.202Z,-10873.56
2022-12-22T22:58:55.535Z,-10885.59
2022-12-22T23:02:02.220Z,-10882.66
2022-12-22T23:05:09.116Z,-10876.91
2022-12-22T23:08:16.738Z,-10883.34
2022-12-22T23:11:23.202Z,-10882.53
2022-12-22T23:14:29.653Z,-10887.84
2022-12-22T23:17:36.076Z,-10887.00
2022-12-22T23:20:45.797Z,-10875.53
2022-12-22T23:23:57.242Z,-10875.81
2022-12-22T23:27:03.784Z,-10866.16
2022-12-22T23:30:11.241Z,-10881.97
2022-12-22T23:33:17.905Z,-10887.28
2022-12-22T23:36:24.239Z,-10889.78
2022-12-22T23:39:32.276Z,-10889.66
2022-12-22T23:42:38.865Z,-10877.75
2022-12-22T23:45:44.994Z,-10881.13
2022-12-22T23:48:55.609Z,-10890.63
2022-12-22T23:52:02.267Z,-10891.47
2022-12-22T23:55:11.246Z,-10882.66
2022-12-22T23:58:18.685Z,-10890.06
